Centre Hospitalier Heliport

FR-0161 · Maine-et-Loire, 卢瓦尔河地区, 法国

罗盘
风向 的 风向 360° Centre Hospitalier Heliport 13/31
风: 3 kt, 1 beaufort

2 kt

2 kt
改变
0 ft 1.000 2.000 3.000 4.000 5.000
CAVOK
METAR LFJR 181930Z AUTO 36003KT CAVOK 24/18 Q1018

METAR Centre Hospitalier Heliport - FR-0161

Centre Hospitalier Heliport是,法国中的直升机场。 该机场位于纬度47,49028和经度-0,55417。 该机场有一条跑道: 13/31. 这个机场没有ICAO代码,我们使用FR-0161作为参考。 机场在Brest FIR中。

该航空气象观测是针对Angers-Marce Airport在2024年7月18日 21:30, 当地时间进行的。

机场观察

风向为360°,速度为3 kt。

天气为CAVOK。这意味着在5.000 ft或MSA(最低安全高度)以下(以较高者为准)以下没有云。这也意味着没有观测到积雨云或高耸的积云,可见度为10 km 或者更多或更高。此外,不会有雾,降雨或其他重要天气。

温度和风寒是24 °C。 露点为18 °C,相对湿度为69%。 海平面上的气压为1018 hPa (QNH)。

白天

今天,太阳从06:24升起,在21:52降落。 这适用于Centre Hospitalier Heliport,世界夏令时可能有所不同。 当地时间与世界标准时间之间的时差为+2 小时。 夏令时目前正在进行中。

公司介绍

我们没有关于这个机场的公司信息。

体会

到Vliegles.nl去找飞行课程,跳伞和其他飞行体验。 浏览页面,了解Centre Hospitalier Heliport附近所有可用的活动。 你也可以使用搜索功能来寻找你所在地附近的特定飞行课程、跳伞或其他飞行体验。

跑道

Id 标题 侧风 逆风 侧风 %
13/31 130°-310° 2 kt 2 kt 77 %

逆风成分最大的方向会被突出显示,并用于横风计算。 这并不一定意味着这个方向在使用。

温度 & 天气

温度 24 °C
露点 18 °C
相对湿度 69%
Kp-index 1 (0-9)

白天

日出
06:23 (8:23)
中午
14:07
日落
21:52

小工具

你想在你的网站上有一个关于Centre Hospitalier Heliport的当前航空天气(METAR)的小部件吗?

显示HTML代码
报告变更